Time;durP1;ratioP1;P1;durP2;ratioP2;P2;SDS_P1;SDS_P2;PMS_P1;PMS_P2;Temp;Humidity;BMP_temperature;BMP_pressure;BME280_temperature;BME280_humidity;BME280_pressure;Samples;Min_cycle;Max_cycle;Signal;HPM_P1;HPM_P2
2021/12/25 00:01:14;;;;;;;3.83;1.08;;;-1.10;99.90;;;;;;5109692;28;20075;-68
2021/12/25 00:03:40;;;;;;;3.05;0.82;;;-1.10;99.90;;;;;;5092594;28;20526;-67
2021/12/25 00:06:06;;;;;;;2.75;0.63;;;-1.10;99.90;;;;;;5092125;28;20062;-67
2021/12/25 00:08:33;;;;;;;2.65;0.73;;;-1.20;99.90;;;;;;5089106;28;20040;-67
2021/12/25 00:11:00;;;;;;;2.92;0.90;;;-1.20;99.90;;;;;;5092812;28;20395;-67
2021/12/25 00:13:25;;;;;;;6.70;1.23;;;-1.00;99.90;;;;;;5092800;28;20510;-68
2021/12/25 00:15:52;;;;;;;3.92;1.27;;;-1.30;99.90;;;;;;5092276;28;20052;-68
2021/12/25 00:18:19;;;;;;;3.38;0.57;;;-1.30;99.90;;;;;;5091992;28;20048;-68
2021/12/25 00:20:46;;;;;;;2.65;1.17;;;-1.30;99.90;;;;;;5072274;28;20072;-67
2021/12/25 00:23:11;;;;;;;1.02;0.30;;;-1.40;99.90;;;;;;5071189;28;20529;-68
2021/12/25 00:25:59;;;;;;;2.60;0.80;;;-1.50;99.90;;;;;;5071116;28;20053;-68
2021/12/25 00:33:54;;;;;;;1.35;0.73;;;-1.50;99.90;;;;;;5077934;28;20294;-68
2021/12/25 00:36:22;;;;;;;2.17;0.65;;;-1.60;99.90;;;;;;5083205;28;20048;-67
2021/12/25 00:38:48;;;;;;;1.42;0.80;;;-1.60;99.90;;;;;;5071713;28;20088;-67
2021/12/25 00:41:17;;;;;;;3.88;0.75;;;-1.70;99.90;;;;;;5072380;28;20698;-67
2021/12/25 00:43:43;;;;;;;1.45;0.60;;;-1.70;99.90;;;;;;5070639;28;20098;-68
2021/12/25 00:46:09;;;;;;;3.78;0.90;;;-1.70;99.90;;;;;;5070873;28;20052;-68
2021/12/25 00:48:35;;;;;;;4.55;1.33;;;-1.70;99.90;;;;;;5074775;28;20337;-67
2021/12/25 00:51:01;;;;;;;4.60;1.08;;;-1.80;99.90;;;;;;5079567;28;20043;-67
2021/12/25 00:53:27;;;;;;;2.60;1.08;;;-1.80;99.90;;;;;;5075522;28;20079;-66
2021/12/25 00:55:52;;;;;;;7.22;1.88;;;-1.90;99.90;;;;;;5083118;28;20533;-66
2021/12/25 00:58:18;;;;;;;2.53;0.60;;;-1.90;99.90;;;;;;5075991;28;20742;-66
2021/12/25 01:00:44;;;;;;;3.28;0.70;;;-1.90;99.90;;;;;;5081562;28;20040;-67
2021/12/25 01:03:11;;;;;;;2.92;0.65;;;-2.00;99.90;;;;;;5076577;28;20060;-66
2021/12/25 01:05:36;;;;;;;3.40;0.77;;;-2.00;99.90;;;;;;5083745;28;20487;-67
2021/12/25 01:08:03;;;;;;;1.80;0.60;;;-2.00;99.90;;;;;;5075946;28;20090;-66
2021/12/25 01:10:28;;;;;;;2.65;0.70;;;-2.00;99.90;;;;;;5078130;28;20047;-66
2021/12/25 01:13:06;;;;;;;3.95;0.50;;;-2.10;99.90;;;;;;5081741;28;20059;-66
2021/12/25 01:15:43;;;;;;;5.80;0.95;;;-2.10;99.90;;;;;;5074528;28;20056;-66
2021/12/25 01:26:46;;;;;;;1.50;0.55;;;-2.20;99.90;;;;;;5078281;28;20742;-66
2021/12/25 01:29:23;;;;;;;1.42;0.57;;;-2.30;99.90;;;;;;5091380;28;20487;-66
2021/12/25 01:37:19;;;;;;;2.20;1.02;;;-2.40;99.90;;;;;;5071017;28;20453;-66
2021/12/25 01:49:53;;;;;;;1.95;0.43;;;-2.50;99.90;;;;;;5070884;28;20056;-66
2021/12/25 01:52:26;;;;;;;1.35;0.50;;;-2.50;99.90;;;;;;5071171;28;20056;-66
2021/12/25 01:54:52;;;;;;;0.60;0.20;;;-2.60;99.90;;;;;;5068608;28;20517;-66
2021/12/25 01:57:18;;;;;;;1.17;0.50;;;-2.60;99.90;;;;;;5071080;28;20056;-66
2021/12/25 01:59:44;;;;;;;2.47;0.60;;;-2.60;99.90;;;;;;5052502;28;20048;-66
2021/12/25 02:02:09;;;;;;;1.73;0.45;;;-2.70;99.90;;;;;;5095373;28;20134;-66
2021/12/25 02:04:35;;;;;;;3.25;0.98;;;-2.70;99.90;;;;;;5092722;28;20048;-67
2021/12/25 02:07:01;;;;;;;5.10;1.45;;;-2.70;99.90;;;;;;5102912;28;20039;-66
2021/12/25 02:09:27;;;;;;;0.80;0.40;;;-2.80;99.90;;;;;;5103168;28;20528;-66
2021/12/25 02:11:53;;;;;;;1.23;0.30;;;-2.80;99.90;;;;;;5107060;28;20544;-66
2021/12/25 02:14:19;;;;;;;0.65;0.28;;;-2.80;99.90;;;;;;5094461;28;20052;-66
2021/12/25 02:16:55;;;;;;;1.85;0.38;;;-2.80;99.90;;;;;;5095117;28;20386;-66
2021/12/25 02:20:06;;;;;;;3.38;0.80;;;-2.90;99.90;;;;;;5111484;28;20075;-66
2021/12/25 02:22:09;;;;;;;0.98;0.32;;;-2.90;99.90;;;;;;5096100;28;20084;-66
2021/12/25 02:24:36;;;;;;;1.67;0.47;;;-3.00;99.90;;;;;;5110058;28;20040;-66
2021/12/25 02:27:03;;;;;;;1.23;0.40;;;-3.00;99.90;;;;;;5111206;28;20036;-66
2021/12/25 02:29:29;;;;;;;4.95;0.30;;;-3.00;99.90;;;;;;5109118;28;20126;-66
2021/12/25 02:31:57;;;;;;;0.45;0.32;;;-3.00;99.90;;;;;;5111221;28;20123;-66
2021/12/25 02:34:23;;;;;;;0.52;0.30;;;-3.00;99.90;;;;;;5109757;28;20581;-66
2021/12/25 02:36:49;;;;;;;0.90;0.28;;;-3.10;99.90;;;;;;5110233;28;20083;-66
2021/12/25 02:39:15;;;;;;;0.32;0.28;;;-3.00;99.90;;;;;;5110923;28;20067;-66
2021/12/25 02:41:41;;;;;;;1.27;0.47;;;-3.10;99.90;;;;;;5110823;28;20062;-66
2021/12/25 02:44:07;;;;;;;0.25;0.15;;;-3.10;99.90;;;;;;5109162;28;20062;-66
2021/12/25 02:46:33;;;;;;;0.63;0.20;;;-3.10;99.90;;;;;;5109712;28;20044;-66
2021/12/25 02:48:59;;;;;;;0.40;0.20;;;-3.10;99.90;;;;;;5109658;28;20138;-67
2021/12/25 02:51:25;;;;;;;2.03;0.22;;;-3.00;99.90;;;;;;5110331;28;20122;-67
2021/12/25 02:53:51;;;;;;;0.60;0.38;;;-3.10;99.90;;;;;;5110612;28;20067;-66
2021/12/25 02:56:17;;;;;;;2.75;0.30;;;-3.10;99.90;;;;;;5110858;28;20497;-66
2021/12/25 02:58:42;;;;;;;0.47;0.22;;;-3.10;99.90;;;;;;5108528;28;20047;-66
2021/12/25 03:01:17;;;;;;;1.55;0.30;;;-3.20;99.90;;;;;;5103601;28;20048;-66
2021/12/25 03:03:44;;;;;;;2.78;0.25;;;-3.20;99.90;;;;;;5099006;28;20052;-66
2021/12/25 03:06:10;;;;;;;2.15;0.30;;;-3.20;99.90;;;;;;5093415;28;20067;-66
2021/12/25 03:08:37;;;;;;;4.43;0.50;;;-3.20;99.90;;;;;;5106679;28;20051;-66
2021/12/25 03:11:06;;;;;;;0.40;0.22;;;-3.20;99.90;;;;;;5089112;28;20109;-66
2021/12/25 03:13:56;;;;;;;0.95;0.30;;;-3.20;99.90;;;;;;5098129;28;20087;-66
2021/12/25 03:16:22;;;;;;;2.80;0.20;;;-3.30;99.90;;;;;;5113181;28;20051;-66
2021/12/25 03:18:51;;;;;;;0.88;0.20;;;-3.30;99.90;;;;;;5113275;28;20063;-66
2021/12/25 03:21:17;;;;;;;1.33;0.47;;;-3.30;99.90;;;;;;5112995;28;20043;-66
2021/12/25 03:23:44;;;;;;;0.77;0.40;;;-3.30;99.90;;;;;;5113081;28;20078;-66
2021/12/25 03:26:10;;;;;;;1.65;0.35;;;-3.40;99.90;;;;;;5113777;28;20139;-66
2021/12/25 03:28:39;;;;;;;1.02;0.20;;;-3.40;99.90;;;;;;5114252;28;20065;-66
2021/12/25 03:31:14;;;;;;;0.70;0.30;;;-3.40;99.90;;;;;;5113229;28;20086;-66
2021/12/25 03:33:40;;;;;;;2.13;0.30;;;-3.40;99.90;;;;;;5113276;28;20047;-66
2021/12/25 03:36:05;;;;;;;1.67;0.60;;;-3.50;99.90;;;;;;5112864;28;20421;-66
2021/12/25 03:38:31;;;;;;;1.10;0.63;;;-3.50;99.90;;;;;;5112623;28;20067;-66
2021/12/25 03:41:00;;;;;;;1.00;0.30;;;-3.50;99.90;;;;;;5112095;28;20083;-66
2021/12/25 03:43:26;;;;;;;0.60;0.30;;;-3.50;99.90;;;;;;5113133;28;20603;-66
2021/12/25 03:45:52;;;;;;;0.10;0.10;;;-3.50;99.90;;;;;;5112507;28;20055;-66
2021/12/25 03:49:08;;;;;;;1.23;0.40;;;-3.50;99.90;;;;;;5113182;28;20051;-66
2021/12/25 03:58:58;;;;;;;1.08;0.40;;;-3.60;99.90;;;;;;5114082;28;20048;-66
2021/12/25 04:01:47;;;;;;;0.63;0.20;;;-3.70;99.90;;;;;;5111951;28;20055;-66
2021/12/25 04:04:19;;;;;;;1.13;0.30;;;-3.70;99.90;;;;;;5113592;28;20138;-66
2021/12/25 04:06:55;;;;;;;1.42;0.40;;;-3.70;99.90;;;;;;5112362;28;20055;-67
2021/12/25 04:09:26;;;;;;;0.60;0.15;;;-3.70;99.90;;;;;;5111828;28;20482;-66
2021/12/25 04:11:53;;;;;;;0.95;0.20;;;-3.70;99.90;;;;;;5113529;28;20051;-66
2021/12/25 04:14:19;;;;;;;0.28;0.10;;;-3.70;99.90;;;;;;5113514;28;20490;-66
2021/12/25 04:16:44;;;;;;;0.40;0.20;;;-3.80;99.90;;;;;;5112541;28;20100;-66
2021/12/25 04:19:11;;;;;;;1.08;0.40;;;-3.80;99.90;;;;;;5111951;28;20060;-66
2021/12/25 04:21:46;;;;;;;1.27;0.45;;;-3.80;99.90;;;;;;5111962;28;20047;-67
2021/12/25 04:24:12;;;;;;;1.25;0.25;;;-3.80;99.90;;;;;;5112745;28;20048;-67
2021/12/25 04:26:40;;;;;;;1.85;0.20;;;-3.80;99.90;;;;;;5111278;28;20576;-66
2021/12/25 04:29:20;;;;;;;0.45;0.30;;;-3.90;99.90;;;;;;5112650;27;20036;-66
2021/12/25 05:01:53;;;;;;;0.95;0.20;;;-4.10;99.90;;;;;;5112492;28;20040;-66
2021/12/25 05:05:04;;;;;;;2.30;1.35;;;-4.10;99.90;;;;;;5110547;28;20067;-66
2021/12/25 05:07:10;;;;;;;0.90;0.10;;;-4.10;99.90;;;;;;5104051;28;20055;-66
2021/12/25 05:09:35;;;;;;;0.35;0.25;;;-4.10;99.90;;;;;;5110804;28;20048;-66
2021/12/25 05:12:01;;;;;;;0.70;0.40;;;-4.10;99.90;;;;;;5111865;28;20039;-66
2021/12/25 05:14:27;;;;;;;0.30;0.10;;;-4.10;99.90;;;;;;5111026;28;20513;-66
2021/12/25 05:16:53;;;;;;;1.70;0.30;;;-4.20;99.90;;;;;;5110523;28;20047;-67
2021/12/25 05:19:19;;;;;;;1.02;0.30;;;-4.10;99.90;;;;;;5110337;28;20059;-66
2021/12/25 05:21:45;;;;;;;0.68;0.30;;;-4.10;99.90;;;;;;5108929;28;20405;-66
2021/12/25 05:24:11;;;;;;;2.30;0.40;;;-4.10;99.90;;;;;;5104100;28;20055;-66
2021/12/25 05:26:36;;;;;;;3.95;0.32;;;-4.20;99.90;;;;;;5091005;28;20054;-66
2021/12/25 05:29:04;;;;;;;1.63;0.28;;;-4.20;99.90;;;;;;5109359;28;20047;-66
2021/12/25 05:31:32;;;;;;;1.55;0.30;;;-4.20;99.90;;;;;;5111963;28;20055;-66
2021/12/25 05:33:58;;;;;;;2.58;0.50;;;-4.20;99.90;;;;;;5105889;28;20073;-66
2021/12/25 05:36:26;;;;;;;1.38;0.15;;;-4.20;99.90;;;;;;5091546;28;20048;-66
2021/12/25 05:38:56;;;;;;;0.52;0.28;;;-4.30;99.90;;;;;;5090782;28;20489;-66
2021/12/25 05:41:21;;;;;;;0.55;0.20;;;-4.30;99.90;;;;;;5089435;28;20105;-66
2021/12/25 05:43:47;;;;;;;3.28;0.50;;;-4.30;99.90;;;;;;5092916;28;20055;-66
2021/12/25 05:46:12;;;;;;;0.52;0.30;;;-4.30;99.90;;;;;;5099399;28;20108;-66
2021/12/25 05:48:38;;;;;;;0.40;0.30;;;-4.30;99.90;;;;;;5108375;28;20096;-66
2021/12/25 05:51:05;;;;;;;1.33;0.40;;;-4.30;99.90;;;;;;5100933;28;20055;-66
2021/12/25 05:53:31;;;;;;;0.20;0.20;;;-4.30;99.90;;;;;;5100121;28;20058;-66
2021/12/25 05:55:56;;;;;;;4.70;0.52;;;-4.30;99.90;;;;;;5092146;28;20475;-66
2021/12/25 05:58:22;;;;;;;2.88;0.65;;;-4.30;99.90;;;;;;5102699;28;20107;-66
2021/12/25 06:00:48;;;;;;;2.35;0.60;;;-4.30;99.90;;;;;;5075458;28;20420;-65
2021/12/25 06:03:13;;;;;;;0.73;0.38;;;-4.30;99.90;;;;;;5102934;28;20044;-66
2021/12/25 06:05:39;;;;;;;1.15;0.43;;;-4.30;99.90;;;;;;5089399;28;20130;-66
2021/12/25 06:08:05;;;;;;;2.17;0.40;;;-4.30;99.90;;;;;;5089318;28;20124;-66
2021/12/25 06:10:31;;;;;;;7.80;1.50;;;-4.20;99.90;;;;;;5090952;28;20052;-66
2021/12/25 06:12:59;;;;;;;0.60;0.32;;;-4.20;99.90;;;;;;5090859;28;20048;-66
2021/12/25 06:15:26;;;;;;;1.30;0.20;;;-4.20;99.90;;;;;;5099183;28;20048;-66
2021/12/25 06:17:52;;;;;;;0.35;0.25;;;-4.20;99.90;;;;;;5070364;28;20056;-66
2021/12/25 06:20:18;;;;;;;1.65;0.20;;;-4.20;99.90;;;;;;5101097;28;20052;-66
2021/12/25 06:22:43;;;;;;;1.25;0.22;;;-4.20;99.90;;;;;;5108580;28;20055;-66
2021/12/25 06:25:10;;;;;;;0.65;0.20;;;-4.20;99.90;;;;;;5089423;28;20098;-66
2021/12/25 06:27:36;;;;;;;2.53;1.40;;;-4.20;99.90;;;;;;5089409;28;20085;-66
2021/12/25 06:30:03;;;;;;;0.20;0.20;;;-4.30;99.90;;;;;;5088743;28;20047;-66
2021/12/25 06:32:28;;;;;;;1.58;0.35;;;-4.30;99.90;;;;;;5090706;28;20047;-66
2021/12/25 06:34:54;;;;;;;1.63;0.20;;;-4.30;99.90;;;;;;5086896;28;20073;-66
2021/12/25 06:37:20;;;;;;;0.93;0.20;;;-4.30;99.90;;;;;;5096416;28;20044;-66
2021/12/25 06:39:47;;;;;;;3.90;1.75;;;-4.30;99.90;;;;;;5102756;28;20360;-66
2021/12/25 06:42:14;;;;;;;3.47;0.40;;;-4.30;99.90;;;;;;5097896;28;20067;-66
2021/12/25 06:44:39;;;;;;;1.45;0.40;;;-4.30;99.90;;;;;;5108754;28;20040;-66
2021/12/25 06:47:05;;;;;;;1.02;0.22;;;-4.30;99.90;;;;;;5111008;28;20044;-66
2021/12/25 06:49:31;;;;;;;0.40;0.30;;;-4.20;99.90;;;;;;5111880;28;20699;-66
2021/12/25 06:51:57;;;;;;;0.65;0.30;;;-4.20;99.90;;;;;;5113429;28;20444;-66
2021/12/25 06:54:23;;;;;;;0.82;0.20;;;-4.20;99.90;;;;;;5115280;28;20055;-66
2021/12/25 06:56:49;;;;;;;0.43;0.20;;;-4.20;99.90;;;;;;5114143;28;20118;-66
2021/12/25 06:59:16;;;;;;;2.13;0.32;;;-4.20;99.90;;;;;;5115059;28;20052;-66
2021/12/25 07:01:42;;;;;;;1.60;0.40;;;-4.30;99.90;;;;;;5097708;28;20044;-66
2021/12/25 07:04:08;;;;;;;2.47;0.52;;;-4.30;99.90;;;;;;5105752;28;20074;-66
2021/12/25 07:06:34;;;;;;;0.30;0.30;;;-4.30;99.90;;;;;;5095929;28;20075;-66
2021/12/25 07:09:00;;;;;;;2.22;0.70;;;-4.30;99.90;;;;;;5094576;28;20087;-66
2021/12/25 07:11:26;;;;;;;1.10;0.30;;;-4.30;99.90;;;;;;5091608;28;20084;-66
2021/12/25 07:13:52;;;;;;;6.00;0.50;;;-4.30;99.90;;;;;;5094049;28;20126;-66
2021/12/25 07:16:18;;;;;;;3.72;0.75;;;-4.30;99.90;;;;;;5094265;28;20048;-66
2021/12/25 07:18:44;;;;;;;0.70;0.30;;;-4.30;99.90;;;;;;5092936;28;20056;-66
2021/12/25 07:21:10;;;;;;;1.35;0.82;;;-4.40;99.90;;;;;;5094413;28;20044;-66
2021/12/25 07:23:35;;;;;;;1.58;0.22;;;-4.40;99.90;;;;;;5094017;28;20071;-66
2021/12/25 07:26:01;;;;;;;2.90;0.75;;;-4.40;99.90;;;;;;5092033;28;20067;-66
2021/12/25 07:28:28;;;;;;;3.35;0.80;;;-4.50;99.90;;;;;;5094164;28;20044;-66
2021/12/25 07:30:56;;;;;;;1.20;0.38;;;-4.50;99.90;;;;;;5097195;28;20406;-66
2021/12/25 07:33:22;;;;;;;0.30;0.20;;;-4.50;99.90;;;;;;5105551;28;20075;-66
2021/12/25 07:35:48;;;;;;;1.95;0.43;;;-4.50;99.90;;;;;;5104607;28;20047;-66
2021/12/25 07:38:15;;;;;;;0.75;0.35;;;-4.50;99.90;;;;;;5094044;28;20135;-66
2021/12/25 07:40:41;;;;;;;3.83;0.50;;;-4.50;99.90;;;;;;5097866;28;20048;-66
2021/12/25 07:43:06;;;;;;;3.35;0.50;;;-4.50;99.90;;;;;;5114148;28;20113;-66
2021/12/25 07:45:32;;;;;;;1.38;0.22;;;-4.50;99.90;;;;;;5111326;28;20044;-66
2021/12/25 07:48:01;;;;;;;1.38;0.25;;;-4.50;99.90;;;;;;5099184;28;20044;-66
2021/12/25 07:50:29;;;;;;;2.75;0.75;;;-4.50;99.90;;;;;;5104015;28;20047;-66
2021/12/25 07:52:55;;;;;;;0.30;0.20;;;-4.50;99.90;;;;;;5097352;28;20056;-66
2021/12/25 07:55:21;;;;;;;2.83;0.30;;;-4.50;99.90;;;;;;5107949;28;20376;-66
2021/12/25 07:57:47;;;;;;;1.05;0.30;;;-4.60;99.90;;;;;;5093278;28;20502;-66
2021/12/25 08:00:14;;;;;;;1.40;0.45;;;-4.60;99.90;;;;;;5092625;28;20052;-66
2021/12/25 08:02:42;;;;;;;0.50;0.20;;;-4.60;99.90;;;;;;5092563;28;20051;-66
2021/12/25 08:05:08;;;;;;;1.00;0.50;;;-4.60;99.90;;;;;;5093547;28;20144;-66
2021/12/25 08:07:34;;;;;;;1.98;0.63;;;-4.60;99.90;;;;;;5092242;28;20130;-65
2021/12/25 08:10:12;;;;;;;0.40;0.40;;;-4.60;99.90;;;;;;5094717;28;20044;-66
2021/12/25 08:12:53;;;;;;;2.80;0.47;;;-4.60;99.90;;;;;;5102812;28;20062;-66
2021/12/25 08:15:25;;;;;;;0.55;0.20;;;-4.60;99.90;;;;;;5104382;28;20055;-66
2021/12/25 08:17:52;;;;;;;2.33;0.45;;;-4.60;99.90;;;;;;5111279;27;20134;-66
2021/12/25 08:20:18;;;;;;;3.50;0.52;;;-4.60;99.90;;;;;;5093127;28;20044;-66
2021/12/25 08:22:45;;;;;;;6.63;0.60;;;-4.60;99.90;;;;;;5084499;28;20059;-66
2021/12/25 08:25:12;;;;;;;2.33;0.50;;;-4.60;99.90;;;;;;5098350;27;20055;-66
2021/12/25 08:27:39;;;;;;;2.53;0.90;;;-4.60;99.90;;;;;;5096291;28;20137;-66
2021/12/25 08:30:08;;;;;;;0.98;0.47;;;-4.60;99.90;;;;;;5089787;28;20056;-66
2021/12/25 08:32:34;;;;;;;0.85;0.70;;;-4.60;99.90;;;;;;5109702;28;20051;-66
2021/12/25 08:35:00;;;;;;;5.07;0.70;;;-4.50;99.90;;;;;;5092802;28;20055;-66
2021/12/25 08:37:26;;;;;;;0.90;0.43;;;-4.50;99.90;;;;;;5090624;28;20040;-66
2021/12/25 08:39:53;;;;;;;2.13;0.70;;;-4.40;99.90;;;;;;5088233;28;20136;-66
2021/12/25 08:42:21;;;;;;;2.75;0.40;;;-4.40;99.90;;;;;;5091568;28;20509;-66
2021/12/25 08:47:25;;;;;;;3.03;0.43;;;-4.30;99.90;;;;;;5099345;28;20055;-66
2021/12/25 08:49:50;;;;;;;1.40;0.38;;;-4.30;99.90;;;;;;5110967;28;20448;-66
2021/12/25 08:52:19;;;;;;;2.88;0.75;;;-4.20;99.90;;;;;;5106130;28;20043;-66
2021/12/25 08:54:45;;;;;;;0.60;0.40;;;-4.20;99.90;;;;;;5090983;28;20052;-65
2021/12/25 08:57:12;;;;;;;1.00;0.32;;;-4.20;99.90;;;;;;5090179;28;20410;-65
2021/12/25 08:59:39;;;;;;;3.40;0.40;;;-4.10;99.90;;;;;;5080509;28;20040;-66
2021/12/25 09:02:08;;;;;;;2.00;0.52;;;-4.10;99.90;;;;;;5072032;28;20417;-66
2021/12/25 09:04:36;;;;;;;0.65;0.50;;;-4.00;99.90;;;;;;5089435;28;20122;-66
2021/12/25 09:07:02;;;;;;;1.88;0.35;;;-4.00;99.90;;;;;;5103093;28;20051;-66
2021/12/25 09:09:28;;;;;;;0.45;0.20;;;-3.90;99.90;;;;;;5093200;28;20047;-66
2021/12/25 09:11:54;;;;;;;0.55;0.20;;;-3.90;99.90;;;;;;5109105;28;20056;-66
2021/12/25 09:14:20;;;;;;;0.60;0.40;;;-3.80;99.90;;;;;;5109404;28;20066;-66
2021/12/25 09:16:45;;;;;;;0.90;0.47;;;-3.80;99.90;;;;;;5112229;28;20114;-66
2021/12/25 09:19:11;;;;;;;0.57;0.28;;;-3.70;99.90;;;;;;5111410;28;20087;-66
2021/12/25 09:21:36;;;;;;;0.85;0.50;;;-3.70;99.90;;;;;;5111882;28;20059;-66
2021/12/25 09:24:02;;;;;;;0.63;0.40;;;-3.60;99.90;;;;;;5098196;28;20036;-66
2021/12/25 09:26:28;;;;;;;0.63;0.40;;;-3.60;99.90;;;;;;5091207;28;20055;-66
2021/12/25 09:28:54;;;;;;;1.08;0.30;;;-3.50;99.90;;;;;;5105641;28;20078;-66
2021/12/25 09:31:19;;;;;;;0.40;0.17;;;-3.50;99.90;;;;;;5094389;28;20039;-66
2021/12/25 09:33:45;;;;;;;0.22;0.13;;;-3.40;99.90;;;;;;5104007;28;21415;-65
2021/12/25 09:36:11;;;;;;;0.63;0.50;;;-3.40;99.90;;;;;;5091567;28;20048;-65
2021/12/25 09:38:36;;;;;;;3.13;0.43;;;-3.30;99.90;;;;;;5098217;28;20047;-66
2021/12/25 09:41:04;;;;;;;1.83;0.30;;;-3.30;99.90;;;;;;5095519;28;20036;-66
2021/12/25 09:43:32;;;;;;;0.73;0.20;;;-3.20;99.90;;;;;;5108108;28;20047;-66
2021/12/25 09:45:58;;;;;;;1.83;0.40;;;-3.20;99.90;;;;;;5096842;28;20076;-66
2021/12/25 09:48:23;;;;;;;6.03;1.42;;;-3.10;99.90;;;;;;5091607;28;20117;-66
2021/12/25 09:50:49;;;;;;;1.45;0.70;;;-3.10;99.90;;;;;;5090035;28;20059;-66
2021/12/25 09:53:17;;;;;;;2.00;0.57;;;-3.00;99.90;;;;;;5092907;28;20426;-66
2021/12/25 09:55:43;;;;;;;0.68;0.47;;;-3.00;99.90;;;;;;5099102;28;20048;-65
2021/12/25 09:58:09;;;;;;;1.88;0.57;;;-3.00;99.90;;;;;;5090781;28;20052;-66
2021/12/25 10:00:39;;;;;;;2.72;1.98;;;-3.00;99.90;;;;;;5094816;28;20171;-66
2021/12/25 10:03:04;;;;;;;4.00;1.60;;;-2.90;99.90;;;;;;5102369;28;20060;-66
2021/12/25 10:05:33;;;;;;;2.35;1.05;;;-2.80;99.90;;;;;;5092976;28;20129;-66
2021/12/25 10:08:11;;;;;;;3.42;0.88;;;-2.80;99.90;;;;;;5089131;28;20051;-66
2021/12/25 10:10:40;;;;;;;0.80;0.50;;;-2.70;99.90;;;;;;5083575;28;20386;-66
2021/12/25 10:13:23;;;;;;;2.08;0.57;;;-2.70;99.90;;;;;;5104362;28;20047;-66
2021/12/25 10:15:49;;;;;;;;;;;-2.60;99.90;;;;;;5110107;28;20060;-66
2021/12/25 10:18:23;;;;;;;1.05;0.85;;;-2.60;99.90;;;;;;5111568;28;20318;-66
2021/12/25 10:20:49;;;;;;;1.13;0.68;;;-2.60;99.90;;;;;;5110743;28;20101;-66
2021/12/25 10:23:15;;;;;;;1.90;1.20;;;-2.60;99.90;;;;;;5111718;28;20048;-66
2021/12/25 10:25:53;;;;;;;1.83;0.63;;;-2.60;99.90;;;;;;5109425;28;20048;-67
2021/12/25 10:28:40;;;;;;;1.42;0.60;;;-2.50;99.90;;;;;;5110833;28;20047;-66
2021/12/25 10:31:16;;;;;;;0.75;0.40;;;-2.50;99.90;;;;;;5097246;28;20132;-66
2021/12/25 10:33:51;;;;;;;1.38;0.65;;;-2.50;99.90;;;;;;5085977;28;20044;-66
2021/12/25 10:36:26;;;;;;;0.90;0.60;;;-2.50;99.90;;;;;;5090137;28;20058;-66
2021/12/25 10:38:58;;;;;;;0.80;0.57;;;-2.50;99.90;;;;;;5089823;28;20379;-66
2021/12/25 10:41:24;;;;;;;3.80;0.93;;;-2.40;99.90;;;;;;5091573;28;20036;-66
2021/12/25 10:43:53;;;;;;;3.88;0.70;;;-2.40;99.90;;;;;;5089401;28;20474;-68
2021/12/25 10:46:19;;;;;;;1.00;0.30;;;-2.40;99.90;;;;;;5091476;28;20056;-67
2021/12/25 10:48:46;;;;;;;1.80;0.60;;;-2.30;99.90;;;;;;5090084;28;20040;-67
2021/12/25 10:51:28;;;;;;;2.40;0.75;;;-2.30;99.90;;;;;;5090990;28;20067;-68
2021/12/25 10:53:55;;;;;;;1.30;0.50;;;-2.30;99.90;;;;;;5091779;28;20048;-68
2021/12/25 10:56:21;;;;;;;1.85;0.93;;;-2.20;99.90;;;;;;5090742;28;20066;-68
2021/12/25 10:58:47;;;;;;;4.43;0.47;;;-2.10;99.90;;;;;;5088266;28;20059;-67
2021/12/25 11:01:15;;;;;;;1.75;0.60;;;-2.10;99.90;;;;;;5104151;28;20040;-68
2021/12/25 11:03:44;;;;;;;1.00;0.60;;;-2.10;99.90;;;;;;5086179;28;20383;-68
2021/12/25 11:06:17;;;;;;;2.38;0.60;;;-2.10;99.90;;;;;;5088719;28;20134;-68
2021/12/25 11:08:44;;;;;;;0.38;0.35;;;-2.00;99.90;;;;;;5078301;28;20157;-68
2021/12/25 11:11:12;;;;;;;0.43;0.30;;;-2.00;99.90;;;;;;5074026;28;20155;-68
2021/12/25 11:13:52;;;;;;;0.80;0.32;;;-1.90;99.90;;;;;;5084412;28;20040;-68
2021/12/25 11:19:10;;;;;;;2.42;0.52;;;-1.90;99.90;;;;;;5087516;28;20113;-68
2021/12/25 11:21:54;;;;;;;5.38;1.23;;;-1.80;99.90;;;;;;5087969;28;20062;-68
2021/12/25 11:24:24;;;;;;;1.23;0.50;;;-1.90;99.90;;;;;;5088074;28;20602;-68
2021/12/25 11:27:06;;;;;;;2.38;0.68;;;-1.90;99.90;;;;;;5083609;28;20040;-68
2021/12/25 11:29:34;;;;;;;1.73;1.10;;;-1.80;99.90;;;;;;5086053;28;20098;-67
2021/12/25 11:32:03;;;;;;;2.63;0.60;;;-1.80;99.90;;;;;;5081212;28;20033;-67
2021/12/25 11:34:29;;;;;;;2.55;0.70;;;-1.80;99.90;;;;;;5081169;28;20608;-69
2021/12/25 11:36:56;;;;;;;2.25;0.77;;;-1.80;99.90;;;;;;5086005;28;20505;-67
2021/12/25 11:39:24;;;;;;;2.35;0.60;;;-1.80;99.90;;;;;;5096270;28;20044;-67
2021/12/25 11:41:55;;;;;;;6.40;2.00;;;-1.70;99.90;;;;;;5086955;28;20059;-67
2021/12/25 11:44:46;;;;;;;1.52;0.50;;;-1.70;99.90;;;;;;5084165;28;20059;-67
2021/12/25 11:47:46;;;;;;;1.40;0.73;;;-1.70;99.90;;;;;;5083667;28;20101;-67
2021/12/25 11:50:17;;;;;;;1.45;0.63;;;-1.70;99.90;;;;;;5084741;28;20053;-67
2021/12/25 11:52:55;;;;;;;1.25;0.82;;;-1.60;99.90;;;;;;5092432;28;20044;-68
2021/12/25 11:58:37;;;;;;;4.65;1.15;;;-0.60;99.90;;;;;;5088755;28;20060;-69
2021/12/25 12:01:21;;;;;;;1.40;0.80;;;-1.60;99.90;;;;;;5089081;28;20115;-68
2021/12/25 12:04:18;;;;;;;2.97;0.60;;;-1.60;99.90;;;;;;5090162;28;20104;-68
2021/12/25 12:06:46;;;;;;;2.72;0.85;;;-1.60;99.90;;;;;;5054280;28;20054;-68
2021/12/25 12:09:13;;;;;;;1.50;0.82;;;-1.50;99.90;;;;;;5090527;28;20055;-68
2021/12/25 12:11:41;;;;;;;0.98;0.47;;;-1.50;99.90;;;;;;5090091;28;20817;-68
2021/12/25 12:14:18;;;;;;;2.22;0.73;;;-1.50;99.90;;;;;;5092205;28;20128;-68
2021/12/25 12:16:45;;;;;;;2.40;0.80;;;-1.50;99.90;;;;;;5089616;28;20043;-68
2021/12/25 12:19:30;;;;;;;1.38;1.00;;;-1.50;99.90;;;;;;5091462;28;20055;-68
2021/12/25 12:21:57;;;;;;;2.85;0.55;;;-1.40;99.90;;;;;;5086823;28;20047;-68
2021/12/25 12:24:42;;;;;;;0.95;0.55;;;-1.50;99.90;;;;;;5095400;28;20047;-68
2021/12/25 12:27:08;;;;;;;1.33;0.80;;;-1.50;99.90;;;;;;5090567;28;20048;-68
2021/12/25 12:29:39;;;;;;;2.53;0.80;;;-1.50;99.90;;;;;;5091607;28;20052;-68
2021/12/25 12:32:20;;;;;;;3.40;0.60;;;-1.50;99.90;;;;;;5091734;28;20123;-68
2021/12/25 12:34:47;;;;;;;1.48;0.77;;;-1.50;99.90;;;;;;5091195;28;20048;-68
2021/12/25 12:37:21;;;;;;;2.35;0.70;;;-1.40;99.90;;;;;;5089778;28;20040;-68
2021/12/25 12:40:16;;;;;;;1.85;0.77;;;-1.50;99.90;;;;;;5088456;28;20042;-69
2021/12/25 12:42:52;;;;;;;7.13;1.23;;;-1.50;99.90;;;;;;5079903;28;20048;-69
2021/12/25 12:45:27;;;;;;;2.25;0.90;;;-1.50;99.90;;;;;;5091359;28;20051;-69
2021/12/25 12:48:16;;;;;;;3.90;0.80;;;-1.50;99.90;;;;;;5090543;28;20397;-69
2021/12/25 12:50:55;;;;;;;1.40;0.55;;;-1.50;99.90;;;;;;5091544;28;20044;-70
2021/12/25 12:53:22;;;;;;;3.97;0.73;;;-1.50;99.90;;;;;;5092679;28;20097;-69
2021/12/25 12:55:53;;;;;;;3.75;1.10;;;-1.40;99.90;;;;;;5091581;28;20048;-69
2021/12/25 12:58:25;;;;;;;1.77;0.85;;;-1.40;99.90;;;;;;5085576;28;20594;-70
2021/12/25 13:00:55;;;;;;;0.93;0.60;;;-1.40;99.90;;;;;;5071452;28;20071;-69
2021/12/25 13:03:21;;;;;;;2.80;0.80;;;-1.40;99.90;;;;;;5092254;28;20044;-69
2021/12/25 13:05:52;;;;;;;1.58;0.80;;;-1.50;99.90;;;;;;5091236;28;20060;-69
2021/12/25 13:08:21;;;;;;;1.55;0.70;;;-1.40;99.90;;;;;;5089736;28;20563;-69
2021/12/25 13:13:21;;;;;;;1.25;0.60;;;-1.50;99.90;;;;;;5104563;28;20379;-69
2021/12/25 13:15:49;;;;;;;1.48;0.75;;;-1.40;99.90;;;;;;5090913;28;20048;-69
2021/12/25 13:18:16;;;;;;;3.90;1.38;;;-1.40;99.90;;;;;;5090867;28;20089;-69
2021/12/25 13:20:49;;;;;;;2.28;0.65;;;-1.50;99.90;;;;;;5091153;28;20044;-68
2021/12/25 13:23:19;;;;;;;3.60;0.77;;;-1.50;99.90;;;;;;5082644;28;20049;-68
2021/12/25 13:26:06;;;;;;;2.85;1.20;;;-1.50;99.90;;;;;;5075360;28;20052;-68
2021/12/25 13:28:37;;;;;;;2.75;0.85;;;-1.50;99.90;;;;;;5084689;28;20112;-69
2021/12/25 13:31:11;;;;;;;2.42;0.93;;;-1.50;99.90;;;;;;5090542;28;20048;-69
2021/12/25 13:33:45;;;;;;;1.65;0.65;;;-1.50;99.90;;;;;;5091744;28;20052;-69
2021/12/25 13:36:20;;;;;;;2.53;0.70;;;-1.60;99.90;;;;;;5091156;28;20051;-69
2021/12/25 13:38:48;;;;;;;1.42;0.82;;;-1.60;99.90;;;;;;5091800;28;20402;-69
2021/12/25 13:41:25;;;;;;;1.90;0.60;;;-1.60;99.90;;;;;;5092555;28;20044;-69
2021/12/25 13:43:51;;;;;;;3.38;0.85;;;-1.60;99.90;;;;;;5091749;28;20482;-69
2021/12/25 13:46:16;;;;;;;2.63;0.73;;;-1.60;99.90;;;;;;5091475;28;20052;-68
2021/12/25 13:48:42;;;;;;;2.97;1.00;;;-1.70;99.90;;;;;;5092231;28;20051;-69
2021/12/25 13:51:08;;;;;;;2.03;0.68;;;-1.70;99.90;;;;;;5091022;28;20059;-69
2021/12/25 13:53:33;;;;;;;1.30;1.00;;;-1.70;99.90;;;;;;5090012;28;20044;-69
2021/12/25 13:56:08;;;;;;;0.90;0.70;;;-1.70;99.90;;;;;;5092353;28;20120;-68
2021/12/25 13:58:33;;;;;;;4.03;1.15;;;-1.70;99.90;;;;;;5082194;28;20048;-68
2021/12/25 14:00:59;;;;;;;2.63;0.80;;;-1.70;99.90;;;;;;5093077;28;20074;-68
2021/12/25 14:03:28;;;;;;;4.53;1.05;;;-1.80;99.90;;;;;;5100488;28;20117;-68
2021/12/25 14:05:54;;;;;;;0.98;0.60;;;-1.80;99.90;;;;;;5091476;28;20036;-68
2021/12/25 14:08:23;;;;;;;2.28;1.15;;;-1.90;99.90;;;;;;5093305;28;20491;-68
2021/12/25 14:10:49;;;;;;;2.00;0.63;;;-1.90;99.90;;;;;;5112011;28;20143;-68
2021/12/25 14:13:18;;;;;;;1.25;0.80;;;-2.00;99.90;;;;;;5127302;27;20086;-68
2021/12/25 14:15:49;;;;;;;2.28;0.88;;;-2.00;99.90;;;;;;5112121;28;20042;-68